• Join FlightAware (Why Join?)
  • Login
  • US Flag 
06:52PM EST


 

Airport Tracker/Info


-or-


 

Live Flight TrackerFlight Track Log ✈ SWA561 ✈ 04-Feb-2014 ✈ KSTL - KMCI

Flight Track Log - Related Links

Times and Time Zones

All times are in EST time to prevent confusion due to time zone crossing. See the SWA561 flight status page for this flight to view local times or setup timezone preferences in your user account.

Time Position Orientation Groundspeed Altitude Reporting Facility
EST Latitude Longitude Course Direction KTS MPH feet Rate Location/Type
11:31AM 38.7333 -90.3333 113° Southeast 147 169 1,800  Level Gateway (St. Louis) TRACON
11:32AM 38.7167 -90.2833 113° Southeast 186 214 4,100 2,940 Climbing Gateway (St. Louis) TRACON
11:33AM 38.6694 -90.3006 196° South 215 247 7,500 3,120 Climbing Kansas City Center
11:34AM 38.6836 -90.3931 281° West 267 307 10,600 2,640 Climbing Kansas City Center
11:35AM 38.7108 -90.5061 287° West 295 339 13,000 3,240 Climbing Kansas City Center
11:36AM 38.7400 -90.6183 288° West 318 366 17,300 3,360 Climbing Kansas City Center
11:37AM 38.7703 -90.7375 288° West 338 389 20,000 2,760 Climbing Kansas City Center
11:38AM 38.8061 -90.8836 288° West 354 407 23,000 1,860 Climbing Kansas City Center
11:39AM 38.8386 -91.0083 289° West 358 412 23,900 1,380 Climbing Kansas City Center
11:40AM 38.8700 -91.1278 289° West 361 415 25,900 1,680 Climbing Kansas City Center
11:41AM 38.9017 -91.2606 287° West 380 437 27,400 1,620 Climbing Kansas City Center
11:42AM 38.9375 -91.3986 288° West 402 463 29,300 1,980 Climbing Kansas City Center
11:43AM 38.9706 -91.5389 287° West 408 470 31,500 2,100 Climbing Kansas City Center
11:44AM 39.0053 -91.6761 288° West 407 468 33,700 2,160 Climbing Kansas City Center
11:45AM 39.0378 -91.8161 287° West 395 455 36,000 2,340 Climbing Kansas City Center
11:46AM 39.0742 -91.9647 288° West 370 426 38,600 1,560 Climbing Kansas City Center
11:47AM 39.1031 -92.0875 287° West 359 413 39,300 660 Climbing Kansas City Center
11:49AM 39.1211 -92.2167 280° West 364 419 40,000 300 Climbing Kansas City Center
11:50AM 39.1300 -92.3444 275° West 361 415 40,000  Level Kansas City Center
11:51AM 39.1394 -92.4731 275° West 360 414 40,000  Level Kansas City Center
11:52AM 39.1486 -92.6017 275° West 361 415 40,000  Level Kansas City Center
11:53AM 39.1594 -92.7419 276° West 363 418 40,000  Level Kansas City Center
11:54AM 39.1686 -92.8714 275° West 364 419 40,000  Level Kansas City Center
11:55AM 39.1767 -93.0028 275° West 366 421 40,000  Level Kansas City Center
11:56AM 39.1861 -93.1317 275° West 365 420 40,000  Level Kansas City Center
11:57AM 39.1947 -93.2586 275° West 360 414 40,000  Level Kansas City Center
11:58AM 39.2033 -93.3869 275° West 360 414 40,000  Level Kansas City Center
11:59AM 39.2131 -93.5292 275° West 362 417 40,000  Level Kansas City Center
12:00PM 39.2231 -93.6756 275° West 366 421 40,000  Level Kansas City Center
12:01PM 39.2306 -93.8017 274° West 369 425 40,000  Level Kansas City Center
12:02PM 39.2383 -93.9272 275° West 369 425 40,000  Level Kansas City Center
12:03PM 39.2481 -94.0742 275° West 368 423 40,000  Level Kansas City Center
12:04PM 39.2550 -94.2000 274° West 368 423 40,000  Level Kansas City Center
12:05PM 39.2636 -94.3458 274° West 366 421 40,000  Level Kansas City Center
12:06PM 39.2711 -94.4717 274° West 367 422 40,000  Level Kansas City Center
12:07PM 39.2797 -94.6181 274° West 368 423 40,000  Level Kansas City Center
12:08PM 39.2844 -94.7431 273° West 365 420 40,000  Level Kansas City Center
12:09PM 39.2878 -94.8669 272° West 364 419 40,000  Level Kansas City Center
12:10PM 39.2900 -95.0125 271° West 365 420 40,000  Level Kansas City Center
12:11PM 39.2911 -95.1514 271° West 366 421 40,000  Level Kansas City Center
12:12PM 39.2933 -95.2878 271° West 363 418 40,000  Level Kansas City Center
12:13PM 39.2944 -95.4156 271° West 371 427 40,000  Level Kansas City Center
12:14PM 39.2983 -95.5517 272° West 371 427 40,000  Level Kansas City Center
12:15PM 39.2986 -95.6800 270° West 374 430 40,000  Level Kansas City Center
12:16PM 39.3000 -95.8311 271° West 377 434 40,000  Level Kansas City Center
12:17PM 39.3008 -95.9608 271° West 379 436 40,000  Level Kansas City Center
12:18PM 39.3022 -96.1122 271° West 379 436 40,000  Level Kansas City Center
12:19PM 39.3044 -96.2486 271° West 377 434 40,000  Level Kansas City Center
12:20PM 39.3047 -96.3842 270° West 379 436 40,000  Level Kansas City Center
12:21PM 39.3050 -96.5236 270° West 379 436 40,000  Level Kansas City Center
12:22PM 39.3053 -96.6533 270° West 378 435 40,000  Level Kansas City Center
12:23PM 39.3061 -96.8075 270° West 383 441 40,000  Level Kansas City Center
12:24PM 39.3056 -96.9394 270° West 384 442 40,000  Level Kansas City Center
12:25PM 39.3058 -97.0711 270° West 385 443 40,000  Level Kansas City Center
12:26PM 39.3053 -97.2272 270° West 388 447 40,000  Level Kansas City Center
12:28PM 39.3053 -97.3597 270° West 387 445 40,000  Level Kansas City Center
12:29PM 39.3050 -97.5169 270° West 390 449 40,000  Level Kansas City Center
12:30PM 39.3036 -97.6606 269° West 389 448 40,000  Level Kansas City Center
12:31PM 39.3028 -97.8017 270° West 392 451 40,000  Level Kansas City Center
12:32PM 39.3025 -97.9403 270° West 389 448 40,000  Level Kansas City Center
12:33PM 39.3017 -98.0747 270° West 390 449 40,000  Level Kansas City Center
12:34PM 39.2997 -98.2225 269° West 391 450 40,000  Level Kansas City Center
12:35PM 39.2972 -98.3650 269° West 394 453 40,000  Level Kansas City Center
12:36PM 39.2958 -98.5072 269° West 395 455 40,000  Level Kansas City Center
12:37PM 39.2939 -98.6625 269° West 397 457 40,000  Level Kansas City Center
12:38PM 39.2928 -98.7994 269° West 398 458 40,000  Level Kansas City Center
12:39PM 39.2900 -98.9431 269° West 396 456 40,000  Level Kansas City Center
12:40PM 39.2881 -99.0856 269° West 398 458 40,000  Level Kansas City Center
12:41PM 39.2844 -99.2281 268° West 399 459 40,000  Level Kansas City Center
12:42PM 39.2803 -99.4011 268° West 403 464 40,000  Level Kansas City Center
12:43PM 39.2764 -99.5414 268° West 397 457 40,000  Level Kansas City Center
12:44PM 39.2739 -99.6753 269° West 397 457 40,000  Level Kansas City Center
12:45PM 39.2700 -99.8333 268° West 397 457 40,000  Level Kansas City Center
12:46PM 39.2658 -99.9672 268° West 394 453 40,000  Level Kansas City Center
12:47PM 39.2611 -100.1244 268° West 394 453 40,000  Level Kansas City Center
12:48PM 39.2603 -100.2597 270° West 393 452 40,000  Level Kansas City Center
12:50PM 39.2814 -100.4753 277° West 409 471 40,000  Level Denver Center
12:51PM 39.2967 -100.6339 277° West 404 465 40,000  Level Denver Center
12:52PM 39.3086 -100.7714 276° West 401 461 40,000  Level Denver Center
12:53PM 39.3231 -100.9328 277° West 404 465 40,000  Level Denver Center
12:54PM 39.3353 -101.0739 276° West 411 473 40,000  Level Denver Center
12:55PM 39.3492 -101.2358 276° West 408 470 40,000  Level Denver Center
12:56PM 39.3611 -101.3767 276° West 412 474 40,000  Level Denver Center
12:57PM 39.3758 -101.5386 277° West 407 468 40,000  Level Denver Center
12:58PM 39.3858 -101.6792 275° West 410 472 40,000  Level Denver Center
12:59PM 39.3650 -101.8378 260° West 402 463 40,000  Level Denver Center
01:00PM 39.3453 -101.9733 259° West 402 463 40,000  Level Denver Center
01:01PM 39.3225 -102.1200 259° West 402 463 40,000  Level Denver Center
01:02PM 39.3011 -102.2564 259° West 404 465 40,000  Level Denver Center
01:03PM 39.2758 -102.4153 258° West 408 470 40,000  Level Denver Center
01:04PM 39.2542 -102.5536 259° West 410 472 40,000  Level Denver Center
01:05PM 39.2281 -102.7136 258° West 410 472 40,000  Level Denver Center
01:06PM 39.2083 -102.8494 259° West 410 472 40,000  Level Denver Center
01:07PM 39.1842 -102.9928 258° West 410 472 40,000  Level Denver Center
01:08PM 39.1564 -103.1656 258° West 411 473 40,000  Level Denver Center
01:09PM 39.1339 -103.3086 259° West 409 471 40,000  Level Denver Center
01:10PM 39.1092 -103.4522 258° West 410 472 40,000  Level Denver Center
01:11PM 39.0850 -103.5969 258° West 413 475 40,000  Level Denver Center
01:12PM 39.0597 -103.7433 258° West 417 480 40,000  Level Denver Center
01:13PM 39.0356 -103.8875 258° West 414 476 40,000  Level Denver Center
01:14PM 39.0061 -104.0614 258° West 413 475 40,000  Level Denver Center
01:15PM 38.9819 -104.2056 258° West 412 474 40,000  Level Denver Center
01:16PM 38.9561 -104.3469 257° West 407 468 40,000  Level Denver Center
01:17PM 38.9314 -104.4894 257° West 407 468 40,000  Level Denver Center
01:19PM 38.9067 -104.6328 258° West 410 472 40,000  Level Denver Center
01:20PM 38.8811 -104.7719 257° West 402 463 40,000  Level Denver Center
01:21PM 38.8517 -104.9417 257° West 404 465 40,000  Level Denver Center
01:22PM 38.8208 -105.1117 257° West 407 468 40,000  Level Denver Center
01:23PM 38.7953 -105.2533 257° West 409 471 40,000  Level Denver Center
01:24PM 38.7686 -105.3936 256° West 406 467 40,000  Level Denver Center
01:25PM 38.7422 -105.5356 257° West 408 470 40,000  Level Denver Center
01:26PM 38.7164 -105.6769 257° West 408 470 40,000  Level Denver Center
01:27PM 38.6903 -105.8197 257° West 412 474 40,000  Level Denver Center
01:28PM 38.6569 -105.9897 256° West 410 472 40,000  Level Denver Center
01:29PM 38.6297 -106.1308 256° West 409 471 40,000  Level Denver Center
01:30PM 38.6047 -106.2656 257° West 412 474 40,000  Level Denver Center
01:31PM 38.5753 -106.4086 255° West 414 476 40,000  Level Denver Center
01:32PM 38.5492 -106.5506 257° West 410 472 40,000  Level Denver Center
01:33PM 38.5208 -106.6942 256° West 414 476 40,000  Level Denver Center
01:34PM 38.4864 -106.8653 256° West 414 476 40,000  Level Denver Center
01:35PM 38.4581 -107.0081 256° West 414 476 40,000  Level Denver Center
01:36PM 38.4169 -107.1453 249° West 417 480 40,000  Level Denver Center
01:37PM 38.3731 -107.2764 247° West 410 472 40,000  Level Denver Center
01:38PM 38.3244 -107.4242 247° West 406 467 40,000  Level Denver Center
01:39PM 38.2825 -107.5492 247° West 403 464 40,000  Level Denver Center
01:40PM 38.2342 -107.6953 247° West 401 461 40,000  Level Denver Center
01:41PM 38.1914 -107.8217 247° West 404 465 40,000  Level Denver Center
01:42PM 38.1486 -107.9475 247° West 404 465 40,000  Level Denver Center
01:44PM 38.0989 -108.0936 247° West 404 465 40,000  Level Denver Center
01:45PM 38.0572 -108.2203 247° West 402 463 40,000  Level Denver Center
01:46PM 38.0069 -108.3631 246° West 400 460 40,000  Level Denver Center
01:47PM 37.9636 -108.4858 246° West 399 459 40,000  Level Denver Center
01:48PM 37.9133 -108.6300 246° West 400 460 40,000  Level Denver Center
01:49PM 37.8708 -108.7522 246° West 399 459 40,000  Level Denver Center
01:50PM 37.8203 -108.8983 246° West 401 461 40,000  Level Denver Center
01:51PM 37.7864 -109.0231 251° West 393 452 40,000  Level Denver Center
01:52PM 37.7544 -109.1503 252° West 396 456 40,000  Level Denver Center
01:53PM 37.7169 -109.2978 252° West 397 457 40,000  Level Denver Center
01:54PM 37.6856 -109.4253 253° West 399 459 40,000 -180 Level Denver Center
01:55PM 37.6489 -109.5711 252° West 393 452 39,700 -600 Descending Denver Center
01:56PM 37.6181 -109.6961 253° West 391 450 38,800 -1,020 Descending Denver Center
01:57PM 37.5794 -109.8458 252° West 402 463 37,700 -960 Descending Denver Center
01:58PM 37.5467 -109.9750 252° West 405 466 36,900 -1,020 Descending Denver Center
01:59PM 37.5086 -110.1222 252° West 398 458 35,700 -1,020 Descending Denver Center
02:00PM 37.4794 -110.2344 252° West 392 451 34,900 -960 Descending Denver Center
02:01PM 37.4381 -110.3906 252° West 393 452 33,800 -1,080 Descending Denver Center
02:02PM 37.4064 -110.5175 253° West 384 442 32,700 -1,020 Descending Denver Center
02:03PM 37.3725 -110.6433 251° West 381 438 31,800 -1,020 Descending Denver Center
02:04PM 37.3406 -110.7678 252° West 377 434 30,700 -900 Descending Denver Center
02:05PM 37.3081 -110.8872 251° West 366 421 30,000 -360 Descending Denver Center
02:06PM 37.2775 -111.0042 252° West 356 410 30,000  Level Denver Center
02:07PM 37.2394 -111.1478 252° West 363 418 30,000  Level Denver Center
02:08PM 37.2067 -111.2694 251° West 368 423 30,000  Level Denver Center
02:09PM 37.1733 -111.3900 251° West 367 422 30,000  Level Denver Center
02:10PM 37.1403 -111.5117 251° West 369 425 30,000  Level Denver Center
02:11PM 37.1119 -111.6347 254° West 371 427 30,000  Level Denver Center
02:12PM 37.0892 -111.7561 257° West 363 418 30,000  Level Denver Center
02:13PM 37.0664 -111.8736 256° West 353 406 30,000 -360 Level Denver Center
02:14PM 37.0406 -111.9906 255° West 350 403 29,300 -1,020 Descending Denver Center
02:15PM 37.0156 -112.1139 256° West 318 366 28,000 -1,140 Descending Denver Center
02:17PM 36.9931 -112.2131 254° West 295 339 26,900 -1,020 Descending Los Angeles Center
02:18PM 36.9675 -112.3294 255° West 290 334 25,700 -1,080 Descending Los Angeles Center
02:19PM 36.9422 -112.4478 255° West 291 335 24,500 -840 Descending Los Angeles Center
02:20PM 36.9206 -112.5464 255° West 292 336 24,000 -300 Descending Los Angeles Center
02:21PM 36.9008 -112.6442 256° West 289 333 24,000  Level Los Angeles Center
02:22PM 36.8792 -112.7397 254° West 287 330 24,000  Level Los Angeles Center
02:23PM 36.8583 -112.8372 255° West 289 333 24,000  Level Los Angeles Center
02:24PM 36.8364 -112.9350 254° West 291 335 24,000  Level Los Angeles Center
02:25PM 36.8097 -113.0517 254° West 291 335 24,000  Level Los Angeles Center
02:26PM 36.7881 -113.1494 255° West 292 336 24,000  Level Los Angeles Center
02:27PM 36.7669 -113.2472 255° West 292 336 24,000  Level Los Angeles Center
02:28PM 36.7456 -113.3447 255° West 292 336 24,000  Level Los Angeles Center
02:29PM 36.7225 -113.4450 254° West 299 344 24,000  Level Los Angeles Center
02:30PM 36.7000 -113.5422 254° West 295 339 24,000  Level Los Angeles Center
02:31PM 36.6733 -113.6622 255° West 299 344 24,000  Level Los Angeles Center
02:32PM 36.6503 -113.7619 254° West 300 345 24,000 -240 Level Los Angeles Center
02:33PM 36.6272 -113.8592 254° West 295 339 23,600 -420 Descending Los Angeles Center
02:35PM 36.2802 -114.4546 230° Southwest  Level FlightAware Approximate
02:42PM 36.0667 -115.1500 219° Southwest  Level FlightAware Approximate